DLH25 EDDH-EDDF
Flight info
| Callsign | DLH25 |
|---|---|
| Flight time | N/A |
| Altitude | 28000 |
| Route | AMLUH2G AMLUH M852 DENIX DCT OBATU DCT RIMET T157 KERAX KERAX5A |
| Aircraft | A20N/M-SDE2E3FGHIRWXY/LB1 |
Departure
| Time | 2026-05-06 15:57 |
|---|---|
| Airport | Hamburg Helmut Schmidt Airport (EDDH) |
Arrival
| Time | N/A |
|---|---|
| Airport | Frankfurt Main Airport (EDDF) |
| Time | Latitude | Longitude | Altitude | Speed | Heading |
|---|---|---|---|---|---|
| 2026-05-06 14:59 | 53.62944 | 10.00291 | 45 ft | 0 kts | 122° |
| 2026-05-06 15:01 | 53.62841 | 10.00206 | 43 ft | 0 kts | 62° |
| 2026-05-06 15:03 | 0.01092 | 0.00001 | 53808 ft | 0 kts | 0° |
| 2026-05-06 15:04 | 53.62841 | 10.00206 | 46 ft | 0 kts | 62° |
| 2026-05-06 15:46 | 53.62832 | 10.00178 | 46 ft | 4 kts | 59° |
| 2026-05-06 15:47 | 53.62817 | 10.00141 | 44 ft | 4 kts | 42° |
| 2026-05-06 15:47 | 53.62795 | 10.00120 | 42 ft | 4 kts | 356° |
| 2026-05-06 15:47 | 53.62783 | 10.00125 | 43 ft | 1 kts | 333° |
| 2026-05-06 15:47 | 53.62782 | 10.00126 | 43 ft | 0 kts | 333° |
| 2026-05-06 15:50 | 53.62813 | 10.00099 | 45 ft | 11 kts | 333° |
| 2026-05-06 15:50 | 53.62853 | 10.00013 | 46 ft | 11 kts | 274° |
| 2026-05-06 15:51 | 53.62843 | 9.99958 | 46 ft | 0 kts | 245° |
| 2026-05-06 15:55 | 53.62830 | 9.99913 | 46 ft | 11 kts | 242° |
| 2026-05-06 15:55 | 53.62833 | 9.99773 | 45 ft | 16 kts | 326° |
| 2026-05-06 15:55 | 53.62849 | 9.99760 | 47 ft | 0 kts | 334° |
| 2026-05-06 15:56 | 53.62855 | 9.99755 | 45 ft | 12 kts | 334° |
| 2026-05-06 15:57 | 53.63160 | 9.99497 | 45 ft | 85 kts | 334° |
| 2026-05-06 15:57 | 53.63858 | 9.98891 | 41 ft | 138 kts | 333° |
| 2026-05-06 15:57 | 53.64802 | 9.98077 | 262 ft | 160 kts | 336° |
| 2026-05-06 15:57 | 53.65815 | 9.97197 | 788 ft | 164 kts | 337° |
| 2026-05-06 15:58 | 53.66770 | 9.96329 | 1377 ft | 163 kts | 334° |
| 2026-05-06 15:58 | 53.67728 | 9.95453 | 1839 ft | 156 kts | 344° |
| 2026-05-06 15:58 | 53.68781 | 9.94870 | 2396 ft | 163 kts | 353° |
| 2026-05-06 15:58 | 53.69936 | 9.94590 | 2949 ft | 174 kts | 5° |
| 2026-05-06 15:59 | 53.71217 | 9.94620 | 3481 ft | 194 kts | 6° |
| 2026-05-06 15:59 | 53.72610 | 9.94884 | 4085 ft | 207 kts | 21° |
| 2026-05-06 15:59 | 53.73833 | 9.96149 | 4909 ft | 209 kts | 49° |
| 2026-05-06 15:59 | 53.74546 | 9.98270 | 5819 ft | 213 kts | 76° |
| 2026-05-06 16:00 | 53.74552 | 10.00793 | 6690 ft | 219 kts | 96° |
| 2026-05-06 16:00 | 53.74204 | 10.03332 | 7528 ft | 225 kts | 108° |
| 2026-05-06 16:00 | 53.73518 | 10.05731 | 8403 ft | 231 kts | 119° |
| 2026-05-06 16:00 | 53.72678 | 10.08161 | 8985 ft | 250 kts | 118° |
| 2026-05-06 16:01 | 53.71780 | 10.10814 | 9454 ft | 272 kts | 118° |
| 2026-05-06 16:01 | 53.70825 | 10.13669 | 10165 ft | 284 kts | 118° |
| 2026-05-06 16:01 | 53.69824 | 10.16655 | 10722 ft | 304 kts | 121° |
| 2026-05-06 16:01 | 53.68739 | 10.19007 | 11009 ft | 324 kts | 136° |
| 2026-05-06 16:02 | 53.66866 | 10.21115 | 11849 ft | 331 kts | 155° |
| 2026-05-06 16:02 | 53.64663 | 10.22282 | 12914 ft | 334 kts | 163° |
| 2026-05-06 16:02 | 53.62391 | 10.23326 | 13801 ft | 340 kts | 164° |
| 2026-05-06 16:02 | 53.60079 | 10.24389 | 14563 ft | 346 kts | 164° |
| 2026-05-06 16:03 | 53.57751 | 10.25458 | 15400 ft | 350 kts | 165° |
| 2026-05-06 16:03 | 53.55403 | 10.26537 | 16288 ft | 351 kts | 166° |
| 2026-05-06 16:03 | 53.53020 | 10.27632 | 16935 ft | 359 kts | 166° |
| 2026-05-06 16:03 | 53.50593 | 10.28742 | 17682 ft | 363 kts | 166° |
| 2026-05-06 16:04 | 53.48140 | 10.29863 | 18383 ft | 367 kts | 166° |
| 2026-05-06 16:04 | 53.45662 | 10.30993 | 19040 ft | 371 kts | 166° |
| 2026-05-06 16:04 | 53.43641 | 10.31913 | 19556 ft | 374 kts | 166° |
| 2026-05-06 16:04 | 53.41117 | 10.33059 | 20229 ft | 377 kts | 166° |
| 2026-05-06 16:05 | 53.38607 | 10.34191 | 20850 ft | 381 kts | 166° |
| 2026-05-06 16:05 | 53.36026 | 10.35351 | 21490 ft | 385 kts | 166° |
| 2026-05-06 16:05 | 53.33424 | 10.36517 | 22111 ft | 390 kts | 166° |
| 2026-05-06 16:05 | 53.30793 | 10.37696 | 22715 ft | 394 kts | 166° |
| 2026-05-06 16:06 | 53.28132 | 10.38887 | 23305 ft | 398 kts | 166° |
| 2026-05-06 16:06 | 53.25463 | 10.40083 | 23968 ft | 397 kts | 166° |
| 2026-05-06 16:06 | 53.23656 | 10.40891 | 24325 ft | 400 kts | 166° |
| 2026-05-06 16:06 | 53.20978 | 10.42086 | 24734 ft | 405 kts | 166° |
| 2026-05-06 16:07 | 53.18254 | 10.43301 | 25302 ft | 406 kts | 166° |
| 2026-05-06 16:07 | 53.15524 | 10.44478 | 25922 ft | 406 kts | 168° |
| 2026-05-06 16:07 | 53.12723 | 10.45232 | 26360 ft | 410 kts | 174° |
| 2026-05-06 16:07 | 53.09857 | 10.45431 | 26701 ft | 416 kts | 181° |
| 2026-05-06 16:08 | 53.06962 | 10.45147 | 27178 ft | 418 kts | 184° |
| 2026-05-06 16:08 | 53.04050 | 10.44828 | 27565 ft | 421 kts | 183° |
| 2026-05-06 16:08 | 53.01128 | 10.44525 | 27672 ft | 420 kts | 183° |
| 2026-05-06 16:08 | 52.98202 | 10.44232 | 27779 ft | 420 kts | 183° |
| 2026-05-06 16:09 | 52.95298 | 10.43945 | 27830 ft | 421 kts | 183° |
| 2026-05-06 16:09 | 52.92354 | 10.43655 | 27829 ft | 422 kts | 183° |
| 2026-05-06 16:09 | 52.89419 | 10.43367 | 27829 ft | 424 kts | 183° |
| 2026-05-06 16:09 | 52.86480 | 10.43078 | 27826 ft | 420 kts | 183° |
| 2026-05-06 16:10 | 52.83600 | 10.42795 | 27826 ft | 420 kts | 183° |
| 2026-05-06 16:10 | 52.80646 | 10.42505 | 27827 ft | 420 kts | 183° |
| 2026-05-06 16:10 | 52.77723 | 10.42222 | 27823 ft | 423 kts | 184° |
| 2026-05-06 16:10 | 52.74821 | 10.41940 | 27823 ft | 423 kts | 184° |
| 2026-05-06 16:11 | 52.71880 | 10.41651 | 27820 ft | 423 kts | 184° |
| 2026-05-06 16:11 | 52.68950 | 10.41349 | 27815 ft | 422 kts | 185° |
| 2026-05-06 16:11 | 52.66262 | 10.40975 | 27815 ft | 421 kts | 186° |
| 2026-05-06 16:11 | 52.63342 | 10.40520 | 27815 ft | 423 kts | 186° |
| 2026-05-06 16:12 | 52.60411 | 10.40061 | 27812 ft | 423 kts | 186° |
| 2026-05-06 16:12 | 52.57483 | 10.39613 | 27809 ft | 423 kts | 186° |
| 2026-05-06 16:12 | 52.54558 | 10.39177 | 27801 ft | 422 kts | 186° |
| 2026-05-06 16:12 | 52.51639 | 10.38753 | 27807 ft | 420 kts | 187° |
| 2026-05-06 16:13 | 52.48718 | 10.38329 | 27806 ft | 421 kts | 187° |
| 2026-05-06 16:13 | 52.45802 | 10.37905 | 27805 ft | 421 kts | 187° |
| 2026-05-06 16:13 | 52.42891 | 10.37482 | 27804 ft | 421 kts | 187° |
| 2026-05-06 16:13 | 52.39975 | 10.37058 | 27803 ft | 421 kts | 187° |
| 2026-05-06 16:14 | 52.37062 | 10.36635 | 27799 ft | 421 kts | 187° |
| 2026-05-06 16:14 | 52.34144 | 10.36212 | 27802 ft | 421 kts | 187° |
| 2026-05-06 16:14 | 52.31227 | 10.35790 | 27801 ft | 421 kts | 187° |
| 2026-05-06 16:14 | 52.28317 | 10.35370 | 27800 ft | 418 kts | 187° |
| 2026-05-06 16:15 | 52.25410 | 10.34951 | 27806 ft | 419 kts | 187° |
| 2026-05-06 16:15 | 52.22515 | 10.34534 | 27801 ft | 419 kts | 187° |
| 2026-05-06 16:15 | 52.19614 | 10.34116 | 27800 ft | 419 kts | 187° |
| 2026-05-06 16:15 | 52.16709 | 10.33699 | 27800 ft | 419 kts | 187° |
| 2026-05-06 16:16 | 52.13807 | 10.33282 | 27799 ft | 419 kts | 187° |
| 2026-05-06 16:16 | 52.10901 | 10.32866 | 27796 ft | 419 kts | 187° |
| 2026-05-06 16:16 | 52.07994 | 10.32450 | 27796 ft | 419 kts | 187° |
| 2026-05-06 16:16 | 52.05098 | 10.32036 | 27793 ft | 418 kts | 187° |
| 2026-05-06 16:17 | 52.02200 | 10.31622 | 27790 ft | 418 kts | 187° |
| 2026-05-06 16:17 | 51.99302 | 10.31209 | 27790 ft | 418 kts | 187° |
| 2026-05-06 16:17 | 51.96407 | 10.30796 | 27790 ft | 418 kts | 187° |